Time;durP1;ratioP1;P1;durP2;ratioP2;P2;SDS_P1;SDS_P2;PMS_P1;PMS_P2;Temp;Humidity;BMP_temperature;BMP_pressure;BME280_temperature;BME280_humidity;BME280_pressure;Samples;Min_cycle;Max_cycle;Signal;HPM_P1;HPM_P2
2021/12/17 07:55:38;;;;;;;15.13;8.57;;;0.50;99.90;;;;;;5136356;27;20294;-76
2021/12/17 07:58:04;;;;;;;15.90;9.83;;;0.60;99.90;;;;;;5136118;27;20504;-76
2021/12/17 08:00:30;;;;;;;19.37;10.37;;;0.70;99.90;;;;;;5131994;27;20167;-77
2021/12/17 08:02:56;;;;;;;17.27;10.40;;;0.70;99.90;;;;;;5132045;27;20171;-77
2021/12/17 08:05:21;;;;;;;21.63;11.37;;;0.70;99.90;;;;;;5131910;27;20668;-76
2021/12/17 08:07:47;;;;;;;16.53;10.53;;;;;;;;;;5130989;28;20637;-77
2021/12/17 08:10:13;;;;;;;17.93;10.00;;;;;;;;;;5130579;28;20583;-77
2021/12/17 08:12:40;;;;;;;17.80;10.97;;;;;;;;;;5132075;28;20416;-76
2021/12/17 08:15:09;;;;;;;14.00;9.87;;;1.20;99.90;;;;;;5130474;28;21020;-77
2021/12/17 08:28:15;;;;;;;8.90;6.23;;;3.90;99.90;;;;;;5132363;27;20919;-77
2021/12/17 08:30:41;;;;;;;7.77;5.80;;;4.00;99.90;;;;;;5131835;27;20408;-77
2021/12/17 08:33:08;;;;;;;8.40;5.90;;;4.30;99.90;;;;;;5130914;28;20832;-77
2021/12/17 08:35:35;;;;;;;7.57;5.87;;;4.70;99.90;;;;;;5131070;28;20215;-78
2021/12/17 08:38:04;;;;;;;6.83;5.80;;;4.80;99.90;;;;;;5132242;27;20401;-77
2021/12/17 08:40:31;;;;;;;5.33;4.53;;;4.90;99.90;;;;;;5131648;27;20775;-77
2021/12/17 08:42:57;;;;;;;5.73;4.83;;;4.80;99.90;;;;;;5131423;28;20409;-78
2021/12/17 08:45:22;;;;;;;7.13;5.67;;;4.80;99.90;;;;;;5134022;27;20423;-78
2021/12/17 08:47:50;;;;;;;6.57;5.57;;;4.90;99.90;;;;;;5136735;27;20245;-78
2021/12/17 08:50:16;;;;;;;7.33;4.80;;;5.10;99.90;;;;;;5132620;28;20198;-78
2021/12/17 08:52:42;;;;;;;4.83;4.20;;;5.50;99.90;;;;;;5132975;28;20175;-78
2021/12/17 08:55:10;;;;;;;5.87;5.03;;;5.70;99.90;;;;;;5133887;27;20561;-77
2021/12/17 08:57:36;;;;;;;4.30;3.90;;;5.80;99.90;;;;;;5133199;28;20255;-78
2021/12/17 09:00:06;;;;;;;7.03;3.97;;;6.10;99.90;;;;;;5134594;27;20194;-78
2021/12/17 09:02:33;;;;;;;4.67;3.87;;;6.20;99.90;;;;;;5134151;28;20487;-78
2021/12/17 09:04:59;;;;;;;5.63;4.40;;;6.30;99.90;;;;;;5130783;28;20243;-78
2021/12/17 09:07:25;;;;;;;5.30;4.13;;;6.30;99.90;;;;;;5121288;28;20577;-78
2021/12/17 09:09:51;;;;;;;4.10;3.70;;;6.40;99.90;;;;;;5121426;28;20171;-78
2021/12/17 09:12:16;;;;;;;5.53;4.67;;;6.60;99.90;;;;;;5120074;28;20632;-78
2021/12/17 09:14:42;;;;;;;7.00;5.97;;;6.70;99.90;;;;;;5121562;28;20203;-78
2021/12/17 09:17:08;;;;;;;6.13;5.53;;;6.70;99.90;;;;;;5120045;28;20182;-78
2021/12/17 09:19:34;;;;;;;10.03;7.27;;;6.70;99.90;;;;;;5121785;28;20525;-78
2021/12/17 09:22:00;;;;;;;7.87;6.77;;;6.40;99.90;;;;;;5119841;28;20175;-78
2021/12/17 09:24:26;;;;;;;11.27;6.00;;;5.80;99.90;;;;;;5121449;28;20172;-78
2021/12/17 09:26:53;;;;;;;6.27;5.67;;;5.00;99.90;;;;;;5122671;28;20175;-78
2021/12/17 09:29:18;;;;;;;6.87;6.07;;;4.30;99.90;;;;;;5122581;28;20175;-78
2021/12/17 09:31:44;;;;;;;7.40;6.70;;;3.70;99.90;;;;;;5122221;28;20175;-78
2021/12/17 09:34:10;;;;;;;8.40;6.80;;;3.50;99.90;;;;;;5121966;28;20286;-78
2021/12/17 09:36:36;;;;;;;8.03;7.00;;;3.40;99.90;;;;;;5120944;28;20282;-80
2021/12/17 09:39:03;;;;;;;7.70;6.03;;;3.30;99.90;;;;;;5122101;28;20178;-78
2021/12/17 09:41:28;;;;;;;6.63;5.57;;;3.10;99.90;;;;;;5120538;28;20643;-78
2021/12/17 09:43:55;;;;;;;7.23;5.53;;;3.30;99.90;;;;;;5121559;28;20244;-78
2021/12/17 09:46:21;;;;;;;7.53;6.40;;;3.00;99.90;;;;;;5119303;28;20685;-78
2021/12/17 09:48:48;;;;;;;8.93;7.17;;;2.90;99.90;;;;;;5120715;28;20537;-78
2021/12/17 09:51:15;;;;;;;7.87;6.67;;;2.70;99.90;;;;;;5121162;28;20213;-78
2021/12/17 09:53:41;;;;;;;7.17;6.37;;;2.70;99.90;;;;;;5119502;28;20208;-78
2021/12/17 09:56:07;;;;;;;9.73;6.53;;;2.80;99.90;;;;;;5119549;28;20278;-78
2021/12/17 09:58:33;;;;;;;8.37;6.73;;;3.10;99.90;;;;;;5121516;28;20244;-78
2021/12/17 10:00:59;;;;;;;9.87;7.23;;;3.30;99.90;;;;;;5119983;28;20650;-78
2021/12/17 10:03:26;;;;;;;9.60;7.10;;;3.50;99.90;;;;;;5120628;28;20610;-79
2021/12/17 10:05:53;;;;;;;9.50;7.23;;;3.60;99.90;;;;;;5120851;28;20184;-78
2021/12/17 10:08:21;;;;;;;8.03;6.40;;;3.70;99.90;;;;;;5121012;28;20181;-78
2021/12/17 10:10:56;;;;;;;9.60;5.53;;;3.70;99.90;;;;;;5121339;28;20175;-78
2021/12/17 10:13:31;;;;;;;8.03;6.30;;;3.80;99.90;;;;;;5120437;28;20276;-78
2021/12/17 10:16:06;;;;;;;8.00;6.30;;;3.80;99.90;;;;;;5120129;28;20200;-78
2021/12/17 10:18:36;;;;;;;7.73;5.97;;;3.60;99.90;;;;;;5119967;28;20174;-78
2021/12/17 10:21:11;;;;;;;9.47;6.60;;;3.50;99.90;;;;;;5118849;28;20178;-78
2021/12/17 10:23:40;;;;;;;7.77;6.47;;;3.30;99.90;;;;;;5120535;28;20164;-78
2021/12/17 10:26:11;;;;;;;7.07;5.97;;;3.20;99.90;;;;;;5118633;28;20664;-78
2021/12/17 10:28:36;;;;;;;7.17;6.47;;;3.10;99.90;;;;;;5117901;28;20412;-78
2021/12/17 10:31:02;;;;;;;6.80;6.10;;;3.30;99.90;;;;;;5118771;28;20222;-78
2021/12/17 10:33:29;;;;;;;7.33;5.83;;;3.70;99.90;;;;;;5118378;28;20603;-78
2021/12/17 10:36:00;;;;;;;6.73;5.53;;;4.40;99.90;;;;;;5119323;28;20187;-78
2021/12/17 10:38:26;;;;;;;7.60;5.77;;;4.70;99.90;;;;;;5119410;27;20173;-78
2021/12/17 10:41:11;;;;;;;6.33;5.27;;;4.70;99.90;;;;;;5126836;28;20471;-78
2021/12/17 10:43:40;;;;;;;8.13;6.03;;;4.30;99.90;;;;;;5121686;28;20418;-78
2021/12/17 10:46:23;;;;;;;7.30;5.30;;;3.90;99.90;;;;;;5131192;28;20204;-77
2021/12/17 10:53:58;;;;;;;7.27;5.03;;;3.80;99.90;;;;;;5118708;27;20217;-78
2021/12/17 10:56:33;;;;;;;5.77;4.77;;;3.90;99.90;;;;;;5118678;28;20179;-78
2021/12/17 10:59:01;;;;;;;6.63;5.17;;;3.90;99.90;;;;;;5119139;28;20219;-78
2021/12/17 11:01:36;;;;;;;5.80;4.73;;;4.60;99.90;;;;;;5117212;28;20176;-78
2021/12/17 11:04:23;;;;;;;6.03;4.90;;;4.90;99.90;;;;;;5119346;28;20160;-78
2021/12/17 11:06:54;;;;;;;5.53;4.33;;;5.60;99.90;;;;;;5119098;28;20151;-78
2021/12/17 11:09:38;;;;;;;5.30;4.63;;;6.00;99.90;;;;;;5120352;28;20156;-79
2021/12/17 11:12:29;;;;;;;4.73;4.23;;;5.90;99.90;;;;;;5118281;28;20639;-79
2021/12/17 11:15:14;;;;;;;5.37;4.40;;;5.90;99.90;;;;;;5119059;28;20209;-79
2021/12/17 11:17:43;;;;;;;5.10;4.33;;;5.60;99.90;;;;;;5118813;28;20189;-79
2021/12/17 11:20:19;;;;;;;41.77;5.77;;;5.90;99.90;;;;;;5118315;28;20243;-79
2021/12/17 11:22:46;;;;;;;5.07;4.27;;;6.50;99.90;;;;;;5119484;28;20241;-79
2021/12/17 11:25:12;;;;;;;4.53;4.13;;;7.10;99.90;;;;;;5118959;28;20191;-78
2021/12/17 11:27:39;;;;;;;4.87;4.37;;;7.70;99.90;;;;;;5119372;28;20825;-78
2021/12/17 11:30:11;;;;;;;11.80;4.30;;;8.10;99.90;;;;;;5119179;27;20205;-78
2021/12/17 11:32:37;;;;;;;5.73;4.03;;;7.80;99.90;;;;;;5119890;28;20175;-79
2021/12/17 11:35:04;;;;;;;4.50;4.10;;;7.70;99.90;;;;;;5118173;28;20207;-78
2021/12/17 11:37:31;;;;;;;4.87;4.07;;;7.70;99.90;;;;;;5119516;28;20183;-78
2021/12/17 11:40:09;;;;;;;5.40;3.70;;;8.00;99.90;;;;;;5120147;28;20179;-78
2021/12/17 11:43:20;;;;;;;4.70;4.20;;;8.60;99.90;;;;;;5117199;28;20177;-79
2021/12/17 11:45:58;;;;;;;4.13;3.83;;;9.10;99.90;;;;;;5102185;28;20211;-79
2021/12/17 11:48:26;;;;;;;4.80;4.37;;;9.50;99.90;;;;;;5115341;28;20171;-78
2021/12/17 11:51:18;;;;;;;4.50;4.10;;;9.10;99.90;;;;;;5114819;28;20182;-78
2021/12/17 11:53:52;;;;;;;4.30;3.90;;;8.50;99.90;;;;;;5116942;28;20202;-78
2021/12/17 11:56:37;;;;;;;6.20;4.90;;;8.30;99.90;;;;;;5119682;28;20645;-78
2021/12/17 11:59:03;;;;;;;4.60;4.20;;;8.00;99.90;;;;;;5119708;28;20231;-78
2021/12/17 12:01:49;;;;;;;4.93;4.43;;;8.10;99.90;;;;;;5118384;28;20248;-78
2021/12/17 12:04:32;;;;;;;4.40;4.00;;;8.30;99.90;;;;;;5119291;28;20178;-79
2021/12/17 12:07:05;;;;;;;5.07;4.50;;;7.90;99.90;;;;;;5119715;28;20178;-79
2021/12/17 12:09:56;;;;;;;5.77;5.17;;;7.50;99.90;;;;;;5119078;28;20548;-78
2021/12/17 12:12:26;;;;;;;4.83;4.33;;;6.60;99.90;;;;;;5117113;28;20154;-78
2021/12/17 12:14:53;;;;;;;5.60;4.97;;;6.00;99.90;;;;;;5117008;28;20206;-78
2021/12/17 12:17:56;;;;;;;6.50;5.57;;;5.70;99.90;;;;;;5117720;28;20160;-79
2021/12/17 12:23:15;;;;;;;5.43;4.70;;;5.30;99.90;;;;;;5117476;28;20156;-78
2021/12/17 12:25:41;;;;;;;6.20;5.20;;;5.50;99.90;;;;;;5115801;28;20205;-78
2021/12/17 12:28:06;;;;;;;9.23;6.67;;;5.30;99.90;;;;;;5116166;28;20176;-77
2021/12/17 12:30:41;;;;;;;6.63;5.13;;;5.20;99.90;;;;;;5114987;28;20176;-78
2021/12/17 12:33:08;;;;;;;6.53;5.10;;;5.10;99.90;;;;;;5116939;28;20688;-78
2021/12/17 12:35:34;;;;;;;6.23;5.00;;;4.60;99.90;;;;;;5120504;28;20213;-77
2021/12/17 12:38:15;;;;;;;7.77;6.13;;;4.70;99.90;;;;;;5119643;28;20648;-77
2021/12/17 12:40:45;;;;;;;6.00;5.40;;;4.60;99.90;;;;;;5119271;28;20198;-77
2021/12/17 12:43:35;;;;;;;5.67;5.03;;;4.50;99.90;;;;;;5126853;28;20188;-77
2021/12/17 12:46:01;;;;;;;6.00;5.40;;;4.40;99.90;;;;;;5126003;28;20191;-77
2021/12/17 12:48:38;;;;;;;7.40;6.17;;;4.40;99.90;;;;;;5116869;28;20188;-77
2021/12/17 12:51:22;;;;;;;7.43;5.83;;;4.30;99.90;;;;;;5116313;28;20192;-78
2021/12/17 12:54:08;;;;;;;7.30;5.60;;;4.40;99.90;;;;;;5115912;28;20209;-77
2021/12/17 12:56:38;;;;;;;6.23;5.23;;;4.50;99.90;;;;;;5117385;28;20694;-77
2021/12/17 12:59:06;;;;;;;6.90;5.97;;;4.50;99.90;;;;;;5117785;28;20173;-77
2021/12/17 13:01:33;;;;;;;6.67;5.30;;;4.60;99.90;;;;;;5117045;28;20164;-78
2021/12/17 13:03:58;;;;;;;6.80;5.63;;;4.70;99.90;;;;;;5117268;28;20180;-78
2021/12/17 13:06:25;;;;;;;9.10;5.47;;;4.60;99.90;;;;;;5118078;28;20436;-78
2021/12/17 13:08:55;;;;;;;7.13;5.70;;;4.80;99.90;;;;;;5117730;28;20594;-77
2021/12/17 13:11:22;;;;;;;7.73;5.80;;;5.10;99.90;;;;;;5115501;28;20417;-77
2021/12/17 13:13:53;;;;;;;6.30;5.57;;;5.10;99.90;;;;;;5118063;28;20199;-78
2021/12/17 13:16:43;;;;;;;7.23;6.07;;;5.10;99.90;;;;;;5117879;28;20425;-78
2021/12/17 13:24:35;;;;;;;6.37;5.57;;;4.90;99.90;;;;;;5119694;28;20878;-78
2021/12/17 13:27:11;;;;;;;7.97;6.23;;;4.80;99.90;;;;;;5117885;28;20767;-78
2021/12/17 13:29:40;;;;;;;8.63;6.77;;;4.80;99.90;;;;;;5119723;28;20927;-78
2021/12/17 13:32:07;;;;;;;6.73;6.00;;;4.80;99.90;;;;;;5118781;28;20437;-80
2021/12/17 13:34:36;;;;;;;8.27;6.40;;;4.80;99.90;;;;;;5117886;28;20997;-79
2021/12/17 13:37:13;;;;;;;6.87;5.97;;;4.90;99.90;;;;;;5118402;28;20405;-79
2021/12/17 13:39:59;;;;;;;8.27;6.20;;;4.90;99.90;;;;;;5119806;28;20418;-78
2021/12/17 13:42:25;;;;;;;9.33;7.27;;;4.80;99.90;;;;;;5117331;28;20389;-78
2021/12/17 13:44:55;;;;;;;8.23;7.27;;;4.60;99.90;;;;;;5117080;28;20195;-78
2021/12/17 13:47:34;;;;;;;10.43;7.60;;;4.50;99.90;;;;;;5117188;28;20172;-78
2021/12/17 13:50:09;;;;;;;9.33;7.33;;;4.40;99.90;;;;;;5117633;28;20409;-78
2021/12/17 13:52:44;;;;;;;10.00;7.63;;;4.20;99.90;;;;;;5117747;28;20167;-78
2021/12/17 13:55:13;;;;;;;10.40;8.47;;;4.20;99.90;;;;;;5116968;28;20475;-78
2021/12/17 13:57:41;;;;;;;11.37;7.90;;;4.00;99.90;;;;;;5117979;28;20164;-78
2021/12/17 14:00:12;;;;;;;11.23;8.80;;;4.00;99.90;;;;;;5118174;28;20413;-78
2021/12/17 14:02:39;;;;;;;11.63;9.43;;;3.90;99.90;;;;;;5117712;28;20434;-78
2021/12/17 14:05:10;;;;;;;12.93;8.87;;;3.90;99.90;;;;;;5117651;28;20425;-78
2021/12/17 14:07:38;;;;;;;13.27;8.83;;;3.70;99.90;;;;;;5117846;28;20406;-77
2021/12/17 14:10:11;;;;;;;11.43;9.00;;;3.70;99.90;;;;;;5116276;28;20489;-78
2021/12/17 14:12:40;;;;;;;11.73;9.43;;;3.60;99.90;;;;;;5116744;28;20430;-78
2021/12/17 14:15:13;;;;;;;10.97;8.83;;;3.50;99.90;;;;;;5117643;28;20453;-78
2021/12/17 14:17:44;;;;;;;14.70;9.67;;;3.40;99.90;;;;;;5117355;28;20397;-78
2021/12/17 14:20:19;;;;;;;9.83;8.60;;;3.40;99.90;;;;;;5116976;28;20392;-78
2021/12/17 14:22:48;;;;;;;11.10;9.50;;;3.40;99.90;;;;;;5116981;28;20894;-78
2021/12/17 14:25:28;;;;;;;10.83;8.73;;;3.30;99.90;;;;;;5116366;28;20441;-78
2021/12/17 14:27:55;;;;;;;12.70;10.30;;;3.10;99.90;;;;;;5117560;28;21039;-78
2021/12/17 14:30:28;;;;;;;11.27;9.50;;;3.10;99.90;;;;;;5116954;28;20755;-78
2021/12/17 14:32:54;;;;;;;11.90;9.17;;;3.10;99.90;;;;;;5115661;28;20417;-78
2021/12/17 14:35:39;;;;;;;11.50;9.70;;;3.00;99.90;;;;;;5117241;28;20463;-78
2021/12/17 14:38:05;;;;;;;13.43;9.97;;;3.10;99.90;;;;;;5115145;28;20436;-78
2021/12/17 14:40:41;;;;;;;14.03;10.53;;;3.00;99.90;;;;;;5115841;28;20894;-78
2021/12/17 14:43:26;;;;;;;15.13;11.00;;;3.00;99.90;;;;;;5114319;28;20171;-78
2021/12/17 14:46:17;;;;;;;17.77;12.87;;;3.10;99.90;;;;;;5114132;28;20528;-77
2021/12/17 14:49:03;;;;;;;13.20;10.10;;;3.00;99.90;;;;;;5115997;28;20406;-77
2021/12/17 14:58:16;;;;;;;19.10;11.17;;;2.70;99.90;;;;;;5117776;28;20393;-78
2021/12/17 15:00:25;;;;;;;15.43;11.93;;;2.70;99.90;;;;;;5118484;28;20413;-77
2021/12/17 15:05:27;;;;;;;16.57;11.93;;;2.80;99.90;;;;;;5118927;28;20428;-79
2021/12/17 15:07:55;;;;;;;28.30;22.43;;;2.80;99.90;;;;;;5118552;28;20381;-79
2021/12/17 15:10:23;;;;;;;23.10;14.07;;;2.70;99.90;;;;;;5118266;28;20420;-79
2021/12/17 15:12:57;;;;;;;17.47;11.47;;;2.70;99.90;;;;;;5116358;28;20417;-78
2021/12/17 15:15:25;;;;;;;22.60;12.70;;;2.60;99.90;;;;;;5115751;28;20517;-79
2021/12/17 15:17:52;;;;;;;21.80;15.47;;;2.60;99.90;;;;;;5117204;27;20405;-78
2021/12/17 15:20:30;;;;;;;37.10;19.93;;;2.50;99.90;;;;;;5115818;28;20406;-78
2021/12/17 15:22:56;;;;;;;37.70;19.83;;;2.60;99.90;;;;;;5116818;28;20400;-79
2021/12/17 15:25:22;;;;;;;27.67;15.57;;;2.60;99.90;;;;;;5117151;28;20421;-78
2021/12/17 15:27:50;;;;;;;24.10;14.63;;;2.50;99.90;;;;;;5117212;28;20183;-78
2021/12/17 15:30:20;;;;;;;26.53;14.87;;;2.50;99.90;;;;;;5115700;28;20410;-78
2021/12/17 15:32:46;;;;;;;26.73;14.37;;;;;;;;;;5116476;28;20413;-78
2021/12/17 15:35:15;;;;;;;20.43;14.97;;;2.40;99.90;;;;;;5115674;28;20461;-78
2021/12/17 15:37:40;;;;;;;24.77;16.20;;;2.40;99.90;;;;;;5117338;28;20397;-79
2021/12/17 15:40:08;;;;;;;25.17;17.03;;;2.40;99.90;;;;;;5116070;28;20492;-79
2021/12/17 15:42:34;;;;;;;24.80;16.10;;;2.50;99.90;;;;;;5119104;28;20163;-78
2021/12/17 15:44:59;;;;;;;24.73;16.87;;;2.50;99.90;;;;;;5118040;28;20429;-78
2021/12/17 15:47:26;;;;;;;25.37;16.60;;;;;;;;;;5117036;28;20416;-78
2021/12/17 15:49:51;;;;;;;28.00;19.27;;;2.60;99.90;;;;;;5117573;28;20171;-79
2021/12/17 15:52:17;;;;;;;30.73;18.43;;;3.00;99.90;;;;;;5115598;28;20753;-78
2021/12/17 15:54:43;;;;;;;28.67;17.97;;;2.50;99.90;;;;;;5114533;28;20211;-78
2021/12/17 15:57:10;;;;;;;27.83;17.23;;;2.50;99.90;;;;;;5114303;28;20355;-78
2021/12/17 15:59:36;;;;;;;25.33;16.43;;;2.40;99.90;;;;;;5114419;28;20504;-78
2021/12/17 16:02:03;;;;;;;30.70;16.63;;;3.00;99.90;;;;;;5115547;28;20486;-78
2021/12/17 16:04:34;;;;;;;28.70;16.87;;;2.40;99.90;;;;;;5114187;28;20182;-78
2021/12/17 16:07:01;;;;;;;31.20;17.50;;;2.40;99.90;;;;;;5115332;28;20446;-78
2021/12/17 16:10:12;;;;;;;30.53;17.40;;;2.30;99.90;;;;;;5115372;28;20806;-78
2021/12/17 16:22:58;;;;;;;36.03;17.90;;;2.70;99.90;;;;;;5119355;28;20490;-78
2021/12/17 16:25:24;;;;;;;55.70;19.77;;;;;;;;;;5118274;28;20930;-77
2021/12/17 16:27:49;;;;;;;41.47;18.43;;;2.60;99.90;;;;;;5118706;28;20593;-78
2021/12/17 16:30:16;;;;;;;36.50;16.40;;;2.40;99.90;;;;;;5117842;28;20179;-78
2021/12/17 16:32:42;;;;;;;31.97;17.97;;;2.50;99.90;;;;;;5119060;28;20171;-78
2021/12/17 16:35:08;;;;;;;30.73;18.07;;;2.40;99.90;;;;;;5118881;28;20464;-77
2021/12/17 16:37:34;;;;;;;32.80;17.63;;;;;;;;;;5118309;28;20240;-77
2021/12/17 16:40:02;;;;;;;31.97;18.10;;;2.60;99.90;;;;;;5118698;28;20488;-77
2021/12/17 16:42:28;;;;;;;49.67;17.93;;;;;;;;;;5118232;28;20433;-77
2021/12/17 16:47:29;;;;;;;29.63;18.53;;;2.40;99.90;;;;;;5117782;28;20401;-77
2021/12/17 16:49:55;;;;;;;38.40;17.93;;;2.50;99.90;;;;;;5118445;28;20160;-78
2021/12/17 16:52:26;;;;;;;47.70;20.17;;;2.50;99.90;;;;;;5117847;28;20773;-77
2021/12/17 16:54:52;;;;;;;41.07;17.53;;;;;;;;;;5116281;28;20544;-78
2021/12/17 16:57:18;;;;;;;40.37;18.90;;;2.50;99.90;;;;;;5118302;28;20431;-77
2021/12/17 16:59:43;;;;;;;48.53;18.93;;;2.50;99.90;;;;;;5117612;28;20412;-77
2021/12/17 17:02:09;;;;;;;29.80;17.53;;;2.50;99.90;;;;;;5118266;28;20605;-78
2021/12/17 17:04:35;;;;;;;44.57;17.57;;;;;;;;;;5120982;28;20677;-78
2021/12/17 17:07:01;;;;;;;100.20;18.87;;;2.20;99.90;;;;;;5116904;28;20179;-78
2021/12/17 17:09:29;;;;;;;54.53;17.90;;;;;;;;;;5117909;28;20197;-77
2021/12/17 17:12:02;;;;;;;79.60;20.57;;;2.30;99.90;;;;;;5117385;28;20179;-79
2021/12/17 17:14:27;;;;;;;60.73;18.87;;;2.40;99.90;;;;;;5116673;28;20871;-77
2021/12/17 17:16:53;;;;;;;55.53;19.50;;;2.40;99.90;;;;;;5117898;28;20413;-77
2021/12/17 17:19:19;;;;;;;58.00;18.13;;;2.50;99.90;;;;;;5117382;28;20175;-77
2021/12/17 17:21:45;;;;;;;44.80;18.27;;;2.40;99.90;;;;;;5117123;28;20633;-77
2021/12/17 17:24:11;;;;;;;42.13;18.40;;;2.40;99.90;;;;;;5118626;28;20661;-77
2021/12/17 17:26:37;;;;;;;50.07;18.23;;;2.40;99.90;;;;;;5116827;28;20282;-78
2021/12/17 17:29:05;;;;;;;40.07;18.97;;;2.50;99.90;;;;;;5117014;28;20171;-77
2021/12/17 17:31:32;;;;;;;58.17;18.83;;;;;;;;;;5116587;28;20785;-77
2021/12/17 17:33:58;;;;;;;51.57;19.43;;;2.30;99.90;;;;;;5119096;28;20449;-79
2021/12/17 17:36:28;;;;;;;40.23;19.27;;;;;;;;;;5125953;28;20436;-78
2021/12/17 17:38:55;;;;;;;78.30;22.40;;;;;;;;;;5123478;28;20410;-79
2021/12/17 17:41:24;;;;;;;149.13;38.03;;;2.30;99.90;;;;;;5121241;28;20405;-78
2021/12/17 17:43:52;;;;;;;45.77;22.93;;;2.50;99.90;;;;;;5120439;28;20922;-78
2021/12/17 17:46:22;;;;;;;78.50;19.93;;;2.50;99.90;;;;;;5118850;27;20437;-76
2021/12/17 17:48:48;;;;;;;48.20;19.27;;;;;;;;;;5117852;28;20413;-76
2021/12/17 17:51:14;;;;;;;55.07;21.47;;;;;;;;;;5117305;28;20417;-76
2021/12/17 17:53:40;;;;;;;42.07;19.60;;;;;;;;;;5120059;28;20429;-76
2021/12/17 17:56:06;;;;;;;72.33;23.10;;;2.30;99.90;;;;;;5122402;28;20433;-75
2021/12/17 17:58:33;;;;;;;82.60;34.27;;;2.30;99.90;;;;;;5118046;28;20496;-76
2021/12/17 18:00:59;;;;;;;50.63;24.37;;;;;;;;;;5117247;28;20185;-77
2021/12/17 18:03:25;;;;;;;39.23;20.90;;;;;;;;;;5117563;28;20895;-77
2021/12/17 18:05:53;;;;;;;61.57;21.57;;;;;;;;;;5117173;28;20428;-78
2021/12/17 18:08:21;;;;;;;57.93;22.20;;;;;;;;;;5117260;28;20770;-77
2021/12/17 18:10:48;;;;;;;52.33;23.20;;;2.30;99.90;;;;;;5116655;28;20409;-77
2021/12/17 18:13:18;;;;;;;44.13;22.47;;;2.30;99.90;;;;;;5116590;28;20485;-78
2021/12/17 18:15:50;;;;;;;37.40;21.67;;;2.30;99.90;;;;;;5118069;28;21378;-77
2021/12/17 18:18:17;;;;;;;42.03;20.93;;;2.40;99.90;;;;;;5117152;28;20393;-77
2021/12/17 18:20:44;;;;;;;40.10;21.10;;;2.60;99.90;;;;;;5115679;28;20835;-77
2021/12/17 18:23:11;;;;;;;37.23;19.57;;;2.40;99.90;;;;;;5117849;28;20425;-78
2021/12/17 18:25:37;;;;;;;36.93;21.17;;;;;;;;;;5117771;28;20445;-79
2021/12/17 18:28:05;;;;;;;43.07;21.97;;;2.40;99.90;;;;;;5118064;28;20464;-79
2021/12/17 18:30:35;;;;;;;38.83;22.23;;;2.40;99.90;;;;;;5117072;28;20421;-79
2021/12/17 18:33:01;;;;;;;37.57;22.50;;;;;;;;;;5117898;28;20854;-78
2021/12/17 18:35:27;;;;;;;35.33;20.83;;;2.40;99.90;;;;;;5117071;28;20461;-79
2021/12/17 18:37:54;;;;;;;66.20;44.17;;;2.40;99.90;;;;;;5116681;28;20420;-78
2021/12/17 18:40:26;;;;;;;42.27;25.93;;;2.40;99.90;;;;;;5115605;28;20470;-78
2021/12/17 18:45:49;;;;;;;32.37;18.90;;;2.50;99.90;;;;;;5116422;28;20461;-78
2021/12/17 18:48:18;;;;;;;32.17;18.97;;;2.40;99.90;;;;;;5117579;28;20409;-78
2021/12/17 18:50:44;;;;;;;30.33;18.90;;;;;;;;;;5116846;28;20409;-78
2021/12/17 18:53:10;;;;;;;30.57;17.53;;;;;;;;;;5117384;28;20488;-78
2021/12/17 18:55:38;;;;;;;30.93;18.60;;;2.50;99.90;;;;;;5115838;28;20807;-78
2021/12/17 18:58:06;;;;;;;31.43;19.07;;;2.30;99.90;;;;;;5116794;27;20417;-78
2021/12/17 19:00:33;;;;;;;32.77;19.80;;;2.10;99.90;;;;;;5116170;28;20421;-78
2021/12/17 19:02:59;;;;;;;65.93;27.90;;;;;;;;;;5117509;28;20901;-78
2021/12/17 19:05:25;;;;;;;72.03;31.37;;;2.50;99.90;;;;;;5117979;28;20440;-78
2021/12/17 19:07:51;;;;;;;42.77;20.20;;;;;;;;;;5117912;28;20506;-78
2021/12/17 19:10:17;;;;;;;35.97;21.50;;;2.40;99.90;;;;;;5117788;28;20901;-78
2021/12/17 19:12:43;;;;;;;33.47;20.87;;;2.40;99.90;;;;;;5118503;28;20417;-79
2021/12/17 19:15:09;;;;;;;78.60;30.77;;;2.40;99.90;;;;;;5118389;28;20213;-78
2021/12/17 19:17:35;;;;;;;39.93;22.77;;;;;;;;;;5116296;28;20239;-78
2021/12/17 19:20:16;;;;;;;30.57;19.23;;;2.40;99.90;;;;;;5117131;28;20850;-78
2021/12/17 19:22:42;;;;;;;32.77;20.83;;;2.20;99.90;;;;;;5115524;28;20174;-78
2021/12/17 19:25:12;;;;;;;33.60;18.00;;;2.00;99.90;;;;;;5116117;28;20436;-78
2021/12/17 19:27:39;;;;;;;29.33;18.33;;;2.20;99.90;;;;;;5115912;28;20455;-77
2021/12/17 19:30:07;;;;;;;31.40;18.70;;;2.40;99.90;;;;;;5114734;28;20578;-78
2021/12/17 19:32:33;;;;;;;31.53;19.73;;;2.40;99.90;;;;;;5116164;28;20405;-78
2021/12/17 19:34:58;;;;;;;26.77;18.00;;;2.40;99.90;;;;;;5117129;28;20985;-78
2021/12/17 19:37:25;;;;;;;35.07;22.23;;;;;;;;;;5119606;28;20417;-78
2021/12/17 19:39:51;;;;;;;26.27;17.80;;;;;;;;;;5116371;28;20198;-78
2021/12/17 19:42:19;;;;;;;26.63;17.10;;;2.20;99.90;;;;;;5114524;28;20493;-78
2021/12/17 19:44:45;;;;;;;26.60;17.77;;;2.20;99.90;;;;;;5114727;28;20441;-78
2021/12/17 19:52:04;;;;;;;27.20;16.83;;;2.10;99.90;;;;;;5115097;28;20899;-77
2021/12/17 19:54:31;;;;;;;26.00;16.40;;;;;;;;;;5114476;28;20495;-77
2021/12/17 19:56:57;;;;;;;32.10;17.40;;;2.20;99.90;;;;;;5114739;28;20433;-77
2021/12/17 19:59:23;;;;;;;29.03;18.13;;;2.20;99.90;;;;;;5115050;28;20543;-78
2021/12/17 20:01:50;;;;;;;31.33;18.23;;;2.20;99.90;;;;;;5114857;28;20466;-77
2021/12/17 20:04:16;;;;;;;27.63;17.27;;;;;;;;;;5113522;28;20549;-77
2021/12/17 20:06:44;;;;;;;27.20;17.27;;;2.10;99.90;;;;;;5113434;28;20446;-77
2021/12/17 20:09:12;;;;;;;28.90;18.97;;;2.10;99.90;;;;;;5114597;28;20423;-77
2021/12/17 20:11:39;;;;;;;27.47;17.37;;;1.90;99.90;;;;;;5114368;28;20504;-78
2021/12/17 20:14:06;;;;;;;26.90;18.10;;;2.20;99.90;;;;;;5114483;28;20463;-77
2021/12/17 20:16:32;;;;;;;27.73;17.53;;;2.00;99.90;;;;;;5114790;28;20433;-78
2021/12/17 20:18:58;;;;;;;29.43;18.57;;;2.10;99.90;;;;;;5113118;28;20456;-78
2021/12/17 20:21:23;;;;;;;30.50;18.93;;;2.00;99.90;;;;;;5114305;28;20410;-77
2021/12/17 20:23:49;;;;;;;30.90;19.43;;;2.10;99.90;;;;;;5115282;28;20180;-78
2021/12/17 20:26:17;;;;;;;28.17;18.73;;;2.10;99.90;;;;;;5114974;28;20557;-78
2021/12/17 20:28:48;;;;;;;31.90;20.30;;;2.00;99.90;;;;;;5114653;28;20168;-78
2021/12/17 20:31:16;;;;;;;28.47;18.80;;;2.00;99.90;;;;;;5114523;28;20389;-77
2021/12/17 20:33:42;;;;;;;30.37;18.90;;;2.00;99.90;;;;;;5114164;28;20412;-76
2021/12/17 20:36:08;;;;;;;31.77;19.97;;;2.00;99.90;;;;;;5114096;28;20781;-77
2021/12/17 20:38:33;;;;;;;34.23;19.30;;;2.00;99.90;;;;;;5114138;28;20164;-76
2021/12/17 20:41:04;;;;;;;36.83;19.40;;;2.00;99.90;;;;;;5112757;28;20534;-76
2021/12/17 20:43:38;;;;;;;34.23;20.13;;;2.00;99.90;;;;;;5114503;28;20152;-76
2021/12/17 20:46:05;;;;;;;30.43;18.90;;;2.00;99.90;;;;;;5112963;28;20429;-76
2021/12/17 20:48:31;;;;;;;33.57;20.33;;;2.10;99.90;;;;;;5113877;28;20424;-76
2021/12/17 20:50:57;;;;;;;30.77;18.97;;;2.10;99.90;;;;;;5117104;28;20406;-77
2021/12/17 20:53:23;;;;;;;32.00;19.43;;;;;;;;;;5113896;28;20191;-76
2021/12/17 20:55:49;;;;;;;31.40;19.70;;;;;;;;;;5114234;28;20207;-76
2021/12/17 20:58:15;;;;;;;34.47;21.10;;;2.10;99.90;;;;;;5112980;28;20441;-76
2021/12/17 21:00:41;;;;;;;29.37;18.73;;;2.10;99.90;;;;;;5114124;28;20765;-76
2021/12/17 21:03:09;;;;;;;33.47;20.60;;;2.00;99.90;;;;;;5116413;28;20167;-76
2021/12/17 21:05:38;;;;;;;30.67;19.67;;;2.00;99.90;;;;;;5117864;28;20429;-76
2021/12/17 21:08:05;;;;;;;33.73;20.57;;;1.90;99.90;;;;;;5117582;28;20420;-77
2021/12/17 21:10:33;;;;;;;30.83;20.47;;;1.90;99.90;;;;;;5117678;28;20453;-76
2021/12/17 21:13:05;;;;;;;30.67;19.50;;;2.00;99.90;;;;;;5118157;27;20484;-78
2021/12/17 21:15:31;;;;;;;30.77;19.83;;;2.00;99.90;;;;;;5117663;28;20457;-77
2021/12/17 21:17:56;;;;;;;31.00;19.33;;;2.00;99.90;;;;;;5117979;28;20401;-77
2021/12/17 21:20:27;;;;;;;35.40;21.13;;;2.10;99.90;;;;;;5117696;28;20195;-77
2021/12/17 21:22:55;;;;;;;31.47;20.57;;;2.10;99.90;;;;;;5117391;28;20238;-77
2021/12/17 21:25:20;;;;;;;31.93;20.20;;;1.80;99.90;;;;;;5117139;28;20432;-78
2021/12/17 21:27:47;;;;;;;32.63;19.70;;;3.10;99.90;;;;;;5117246;28;20409;-79
2021/12/17 21:30:13;;;;;;;36.20;20.90;;;1.90;99.90;;;;;;5117406;28;20224;-77
2021/12/17 21:32:40;;;;;;;32.10;20.17;;;1.80;99.90;;;;;;5117305;27;20424;-77
2021/12/17 21:35:19;;;;;;;32.53;20.37;;;1.80;99.90;;;;;;5117510;28;20509;-77
2021/12/17 21:37:55;;;;;;;32.03;19.80;;;1.80;99.90;;;;;;5116253;28;20458;-76
2021/12/17 21:40:21;;;;;;;31.00;19.70;;;1.80;99.90;;;;;;5117059;28;20405;-77
2021/12/17 21:42:48;;;;;;;34.57;20.67;;;1.80;99.90;;;;;;5117282;28;20408;-77
2021/12/17 21:45:14;;;;;;;32.93;18.50;;;1.80;99.90;;;;;;5117785;28;20421;-77
2021/12/17 21:47:41;;;;;;;30.30;18.67;;;1.80;99.90;;;;;;5118712;27;20785;-77
2021/12/17 21:50:10;;;;;;;31.97;19.30;;;1.70;99.90;;;;;;5119998;28;20416;-77
2021/12/17 21:52:37;;;;;;;30.03;19.40;;;1.60;99.90;;;;;;5122118;28;20470;-76
2021/12/17 21:55:06;;;;;;;31.73;19.63;;;1.60;99.90;;;;;;5115641;28;20468;-77